createdAt,value
2022-09-06T00:03:08.926Z,3.80
2022-09-06T00:08:10.838Z,4.00
2022-09-06T00:13:13.427Z,4.23
2022-09-06T00:18:15.233Z,4.40
2022-09-06T00:23:17.284Z,5.43
2022-09-06T00:28:19.712Z,4.10
2022-09-06T00:33:22.906Z,4.07
2022-09-06T00:38:24.834Z,5.40
2022-09-06T00:43:28.844Z,4.33
2022-09-06T00:48:31.220Z,4.43
2022-09-06T00:53:33.171Z,4.37
2022-09-06T00:58:35.489Z,3.83
2022-09-06T01:03:37.534Z,4.30
2022-09-06T01:09:37.972Z,4.43
2022-09-06T01:14:54.051Z,4.70
2022-09-06T01:20:09.433Z,4.33
2022-09-06T01:25:18.948Z,4.30
2022-09-06T01:30:21.137Z,4.63
2022-09-06T01:35:37.732Z,4.13
2022-09-06T01:40:39.457Z,4.47
2022-09-06T01:46:00.475Z,4.13
2022-09-06T01:51:11.374Z,4.10
2022-09-06T01:56:31.743Z,4.30
2022-09-06T02:02:12.715Z,3.97
2022-09-06T02:07:21.022Z,4.03
2022-09-06T02:12:23.895Z,4.03
2022-09-06T02:17:33.068Z,4.53
2022-09-06T02:22:39.135Z,4.57
2022-09-06T02:27:40.875Z,4.43
2022-09-06T02:32:48.649Z,4.30
2022-09-06T02:37:50.639Z,4.30
2022-09-06T02:42:53.519Z,4.47
2022-09-06T02:47:55.327Z,4.43
2022-09-06T02:53:09.554Z,5.30
2022-09-06T02:58:12.034Z,4.53
2022-09-06T03:03:14.851Z,4.97
2022-09-06T03:08:17.466Z,4.63
2022-09-06T03:13:19.373Z,5.07
2022-09-06T03:18:21.414Z,4.13
2022-09-06T03:23:25.342Z,4.23
2022-09-06T03:28:27.766Z,4.30
2022-09-06T03:33:29.900Z,4.40
2022-09-06T03:38:31.635Z,4.50
2022-09-06T03:43:33.901Z,4.50
2022-09-06T03:48:35.775Z,4.27
2022-09-06T03:53:37.645Z,4.50
2022-09-06T03:58:39.387Z,5.13
2022-09-06T04:03:41.367Z,4.63
2022-09-06T04:08:43.119Z,4.40
2022-09-06T04:13:44.918Z,5.03
2022-09-06T04:18:46.655Z,4.47
2022-09-06T04:23:49.880Z,4.30
2022-09-06T04:29:04.838Z,4.67
2022-09-06T04:34:15.160Z,4.50
2022-09-06T04:39:16.945Z,5.03
2022-09-06T04:44:18.658Z,5.13
2022-09-06T04:49:20.388Z,5.20
2022-09-06T04:54:22.128Z,4.37
2022-09-06T04:59:23.933Z,5.17
2022-09-06T05:04:26.013Z,5.13
2022-09-06T05:09:33.701Z,5.30
2022-09-06T05:14:38.623Z,4.93
2022-09-06T05:19:41.026Z,4.47
2022-09-06T05:24:42.830Z,5.43
2022-09-06T05:29:44.517Z,10.27
2022-09-06T05:34:46.253Z,5.70
2022-09-06T05:39:48.040Z,7.87
2022-09-06T05:44:49.834Z,4.83
2022-09-06T05:49:52.089Z,4.87
2022-09-06T05:54:53.820Z,5.00
2022-09-06T05:59:55.649Z,4.90
2022-09-06T06:04:58.318Z,5.27
2022-09-06T06:10:00.003Z,6.23
2022-09-06T06:15:02.015Z,4.90
2022-09-06T06:20:03.962Z,5.20
2022-09-06T06:25:05.908Z,5.07
2022-09-06T06:30:08.229Z,5.00
2022-09-06T06:35:10.223Z,5.13
2022-09-06T06:40:12.027Z,5.60
2022-09-06T06:45:13.983Z,5.97
2022-09-06T06:50:15.779Z,5.50
2022-09-06T06:55:17.573Z,5.43
2022-09-06T07:00:19.400Z,6.23
2022-09-06T07:10:43.209Z,5.23
2022-09-06T07:15:44.943Z,4.57
2022-09-06T07:26:13.229Z,5.60
2022-09-06T07:36:36.613Z,5.93
2022-09-06T07:41:38.313Z,4.93
2022-09-06T07:46:40.249Z,5.97
2022-09-06T07:51:42.130Z,6.80
2022-09-06T07:56:43.854Z,5.93
2022-09-06T08:01:47.429Z,5.77
2022-09-06T08:12:13.874Z,5.93
2022-09-06T08:17:15.639Z,5.23
2022-09-06T08:22:17.389Z,5.13
2022-09-06T08:27:19.160Z,4.77
2022-09-06T08:32:20.963Z,5.17
2022-09-06T08:37:25.118Z,5.80
2022-09-06T08:42:27.051Z,4.43
2022-09-06T08:47:29.340Z,4.63
2022-09-06T08:52:54.390Z,3.50
2022-09-06T08:58:24.427Z,3.57
2022-09-06T09:03:37.120Z,3.87
2022-09-06T09:08:41.492Z,3.73
2022-09-06T09:13:59.300Z,3.73
2022-09-06T09:19:04.945Z,3.30
2022-09-06T09:24:09.802Z,3.60
2022-09-06T09:29:13.567Z,3.50
2022-09-06T09:34:33.980Z,3.83
2022-09-06T09:39:37.108Z,3.40
2022-09-06T09:44:43.427Z,3.50
2022-09-06T09:49:45.146Z,3.10
2022-09-06T09:54:47.662Z,2.90
2022-09-06T09:59:53.155Z,3.38
2022-09-06T10:05:03.315Z,2.70
2022-09-06T10:10:22.804Z,3.13
2022-09-06T10:15:33.593Z,3.30
2022-09-06T10:20:40.333Z,2.92
2022-09-06T10:25:49.087Z,2.63
2022-09-06T10:31:16.300Z,2.53
2022-09-06T10:36:23.842Z,2.58
2022-09-06T10:41:39.693Z,2.20
2022-09-06T10:46:44.964Z,1.75
2022-09-06T10:51:51.945Z,2.50
2022-09-06T10:57:05.103Z,2.00
2022-09-06T11:02:11.103Z,2.03
2022-09-06T11:07:25.868Z,2.15
2022-09-06T11:12:33.448Z,2.17
2022-09-06T11:17:47.465Z,2.50
2022-09-06T11:23:09.409Z,2.58
2022-09-06T11:28:16.316Z,2.38
2022-09-06T11:33:25.750Z,2.47
2022-09-06T11:38:27.635Z,2.67
2022-09-06T11:43:46.843Z,2.20
2022-09-06T11:49:06.013Z,2.60
2022-09-06T11:54:21.737Z,2.25
2022-09-06T11:59:40.544Z,1.90
2022-09-06T12:05:10.557Z,2.33
2022-09-06T12:10:38.670Z,2.20
2022-09-06T12:15:46.863Z,2.60
2022-09-06T12:20:48.506Z,2.65
2022-09-06T12:25:56.299Z,2.30
2022-09-06T12:30:58.093Z,2.33
2022-09-06T12:36:20.116Z,2.30
2022-09-06T12:41:22.531Z,2.47
2022-09-06T12:46:25.617Z,2.05
2022-09-06T12:51:27.340Z,2.47
2022-09-06T12:56:32.742Z,2.38
2022-09-06T13:01:35.791Z,2.58
2022-09-06T13:06:42.274Z,2.35
2022-09-06T13:11:51.521Z,2.35
2022-09-06T13:16:57.065Z,2.35
2022-09-06T13:21:59.473Z,2.65
2022-09-06T13:27:22.769Z,2.35
2022-09-06T13:32:26.050Z,2.22
2022-09-06T13:37:29.973Z,2.42
2022-09-06T13:42:33.839Z,2.33
2022-09-06T13:47:35.522Z,2.40
2022-09-06T13:52:37.263Z,1.80
2022-09-06T13:57:39.182Z,3.30
2022-09-06T14:02:41.690Z,2.97
2022-09-06T14:07:44.189Z,2.50
2022-09-06T14:12:45.995Z,1.80
2022-09-06T14:17:47.770Z,2.13
2022-09-06T14:22:49.518Z,1.77
2022-09-06T14:27:51.560Z,1.83
2022-09-06T14:32:53.330Z,1.98
2022-09-06T14:37:55.075Z,2.20
2022-09-06T14:42:58.068Z,1.70
2022-09-06T14:47:59.894Z,2.13
2022-09-06T14:53:02.049Z,1.95
2022-09-06T14:58:03.803Z,1.80
2022-09-06T15:03:05.600Z,2.50
2022-09-06T15:08:07.542Z,2.15
2022-09-06T15:13:09.333Z,1.58
2022-09-06T15:18:11.501Z,2.45
2022-09-06T15:23:24.921Z,1.85
2022-09-06T15:28:27.397Z,1.98
2022-09-06T15:33:30.668Z,2.17
2022-09-06T15:38:33.789Z,2.17
2022-09-06T15:43:38.316Z,1.80
2022-09-06T15:48:45.470Z,2.60
2022-09-06T15:53:47.780Z,1.80
2022-09-06T15:58:49.777Z,2.05
2022-09-06T16:04:03.583Z,1.80
2022-09-06T16:09:08.318Z,1.90
2022-09-06T16:14:13.746Z,1.67
2022-09-06T16:19:15.483Z,2.55
2022-09-06T16:24:18.205Z,1.85
2022-09-06T16:29:20.283Z,1.90
2022-09-06T16:34:22.062Z,2.45
2022-09-06T16:39:24.022Z,3.22
2022-09-06T16:44:26.079Z,2.25
2022-09-06T16:49:27.892Z,12.05
2022-09-06T16:54:29.637Z,8.33
2022-09-06T16:59:31.579Z,3.67
2022-09-06T17:04:33.342Z,3.35
2022-09-06T17:09:35.308Z,2.90
2022-09-06T17:14:37.086Z,2.90
2022-09-06T17:19:41.473Z,3.70
2022-09-06T17:24:43.796Z,3.60
2022-09-06T17:29:45.630Z,3.30
2022-09-06T17:34:47.489Z,3.57
2022-09-06T17:39:49.565Z,4.73
2022-09-06T17:44:51.556Z,3.13
2022-09-06T17:49:53.418Z,4.97
2022-09-06T17:54:55.213Z,4.43
2022-09-06T17:59:56.992Z,3.77
2022-09-06T18:04:58.783Z,4.07
2022-09-06T18:10:00.609Z,4.63
2022-09-06T18:15:02.442Z,4.53
2022-09-06T18:20:05.281Z,3.90
2022-09-06T18:25:08.621Z,4.10
2022-09-06T18:30:14.759Z,4.90
2022-09-06T18:35:16.943Z,4.50
2022-09-06T18:40:18.728Z,5.17
2022-09-06T18:45:20.548Z,5.70
2022-09-06T18:50:22.341Z,4.40
2022-09-06T18:55:24.812Z,5.17
2022-09-06T19:00:26.666Z,6.40
2022-09-06T19:05:28.798Z,6.97
2022-09-06T19:10:30.990Z,5.77
2022-09-06T19:15:32.830Z,6.33
2022-09-06T19:20:34.697Z,6.03
2022-09-06T19:25:36.483Z,5.53
2022-09-06T19:30:38.451Z,5.37
2022-09-06T19:35:55.723Z,5.03
2022-09-06T19:41:06.768Z,5.20
2022-09-06T19:46:09.579Z,5.23
2022-09-06T19:51:11.861Z,5.60
2022-09-06T19:56:18.491Z,6.07
2022-09-06T20:01:20.567Z,5.57
2022-09-06T20:06:22.565Z,5.47
2022-09-06T20:11:27.078Z,6.03
2022-09-06T20:16:30.375Z,5.53
2022-09-06T20:21:32.354Z,9.53
2022-09-06T20:26:34.138Z,5.07
2022-09-06T20:31:37.152Z,4.87
2022-09-06T20:36:38.940Z,5.27
2022-09-06T20:41:40.665Z,8.87
2022-09-06T20:46:42.577Z,10.50
2022-09-06T20:51:44.653Z,8.20
2022-09-06T20:56:46.456Z,8.13
2022-09-06T21:01:51.417Z,6.03
2022-09-06T21:06:53.462Z,6.13
2022-09-06T21:11:55.426Z,6.47
2022-09-06T21:16:57.463Z,5.97
2022-09-06T21:21:59.608Z,5.80
2022-09-06T21:27:01.616Z,5.77
2022-09-06T21:32:03.649Z,5.63
2022-09-06T21:37:05.559Z,4.93
2022-09-06T21:42:07.378Z,5.90
2022-09-06T21:47:09.286Z,5.73
2022-09-06T21:52:14.304Z,5.50
2022-09-06T21:57:17.179Z,5.87
2022-09-06T22:02:20.071Z,5.17
2022-09-06T22:07:21.893Z,6.00
2022-09-06T22:12:26.759Z,5.83
2022-09-06T22:17:32.568Z,5.17
2022-09-06T22:22:38.324Z,5.80
2022-09-06T22:27:42.617Z,6.60
2022-09-06T22:32:46.787Z,5.17
2022-09-06T22:37:48.910Z,5.00
2022-09-06T22:42:50.814Z,4.80
2022-09-06T22:47:52.719Z,5.10
2022-09-06T22:52:54.869Z,5.33
2022-09-06T22:57:56.816Z,4.97
2022-09-06T23:02:58.621Z,5.90
2022-09-06T23:08:02.019Z,4.87
2022-09-06T23:13:03.756Z,5.67
2022-09-06T23:18:05.577Z,6.00
2022-09-06T23:23:08.285Z,4.63
2022-09-06T23:28:10.135Z,5.50
2022-09-06T23:33:12.015Z,4.77
2022-09-06T23:38:13.828Z,4.70
2022-09-06T23:43:15.717Z,4.87
2022-09-06T23:48:17.829Z,4.87
2022-09-06T23:53:19.908Z,4.13
2022-09-06T23:58:22.004Z,4.00
